createdAt,value
2022-10-04T00:01:58.801Z,6.14
2022-10-04T00:04:28.825Z,6.21
2022-10-04T00:07:00.470Z,6.22
2022-10-04T00:09:32.595Z,6.27
2022-10-04T00:12:02.259Z,6.32
2022-10-04T00:14:31.479Z,6.34
2022-10-04T00:17:00.206Z,6.27
2022-10-04T00:19:44.434Z,6.24
2022-10-04T00:22:19.525Z,6.19
2022-10-04T00:25:18.806Z,6.15
2022-10-04T00:28:28.308Z,6.18
2022-10-04T00:31:24.574Z,6.10
2022-10-04T00:33:57.942Z,5.99
2022-10-04T00:36:48.332Z,5.96
2022-10-04T00:39:28.133Z,5.98
2022-10-04T00:42:04.560Z,6.01
2022-10-04T00:44:38.280Z,5.93
2022-10-04T00:47:18.822Z,5.85
2022-10-04T00:49:47.758Z,5.79
2022-10-04T00:52:17.361Z,5.77
2022-10-04T00:54:50.409Z,5.74
2022-10-04T00:57:20.721Z,5.73
2022-10-04T00:59:50.764Z,5.69
2022-10-04T01:02:19.991Z,5.73
2022-10-04T01:04:52.324Z,5.73
2022-10-04T01:07:22.162Z,5.75
2022-10-04T01:09:53.215Z,5.71
2022-10-04T01:12:28.598Z,5.72
2022-10-04T01:15:02.805Z,5.72
2022-10-04T01:17:30.574Z,5.71
2022-10-04T01:19:58.398Z,5.71
2022-10-04T01:22:36.777Z,5.70
2022-10-04T01:25:04.854Z,5.63
2022-10-04T01:27:35.856Z,5.57
2022-10-04T01:30:07.578Z,5.57
2022-10-04T01:32:35.261Z,5.64
2022-10-04T01:35:02.947Z,5.60
2022-10-04T01:37:30.650Z,5.64
2022-10-04T01:39:59.732Z,5.63
2022-10-04T01:42:31.129Z,5.62
2022-10-04T01:45:03.170Z,5.55
2022-10-04T01:47:34.725Z,5.54
2022-10-04T01:50:07.553Z,5.50
2022-10-04T01:52:36.997Z,5.47
2022-10-04T01:55:08.635Z,5.48
2022-10-04T01:57:38.400Z,5.45
2022-10-04T02:00:08.520Z,5.38
2022-10-04T02:02:39.140Z,5.34
2022-10-04T02:05:10.284Z,5.34
2022-10-04T02:07:39.070Z,5.36
2022-10-04T02:10:11.410Z,5.35
2022-10-04T02:12:39.243Z,5.35
2022-10-04T02:15:09.445Z,5.29
2022-10-04T02:17:40.356Z,5.28
2022-10-04T02:20:12.411Z,5.28
2022-10-04T02:22:40.698Z,5.27
2022-10-04T02:25:11.267Z,5.20
2022-10-04T02:27:38.918Z,5.19
2022-10-04T02:30:09.233Z,5.15
2022-10-04T02:32:56.035Z,5.04
2022-10-04T02:35:24.508Z,5.00
2022-10-04T02:37:57.614Z,5.01
2022-10-04T02:40:31.151Z,5.00
2022-10-04T02:43:03.401Z,4.99
2022-10-04T02:45:34.036Z,4.97
2022-10-04T02:48:05.717Z,5.01
2022-10-04T02:50:36.529Z,5.02
2022-10-04T02:53:13.392Z,5.06
2022-10-04T02:55:43.563Z,5.12
2022-10-04T02:58:12.272Z,5.15
2022-10-04T03:00:48.010Z,5.15
2022-10-04T03:03:24.011Z,5.18
2022-10-04T03:05:59.297Z,5.22
2022-10-04T03:08:28.363Z,5.22
2022-10-04T03:10:59.240Z,5.27
2022-10-04T03:13:27.328Z,5.30
2022-10-04T03:15:55.283Z,5.35
2022-10-04T03:18:23.907Z,5.38
2022-10-04T03:20:52.405Z,5.40
2022-10-04T03:23:21.261Z,5.38
2022-10-04T03:25:53.540Z,5.40
2022-10-04T03:28:22.835Z,5.42
2022-10-04T03:30:51.281Z,5.44
2022-10-04T03:33:22.220Z,5.45
2022-10-04T03:35:53.130Z,5.46
2022-10-04T03:38:21.301Z,5.52
2022-10-04T03:40:53.335Z,5.53
2022-10-04T03:43:24.793Z,5.51
2022-10-04T03:45:53.384Z,5.52
2022-10-04T03:48:29.312Z,5.56
2022-10-04T03:50:57.224Z,5.60
2022-10-04T03:53:29.388Z,5.56
2022-10-04T03:55:59.885Z,5.56
2022-10-04T03:58:31.952Z,5.61
2022-10-04T04:01:22.273Z,5.60
2022-10-04T04:04:00.498Z,5.52
2022-10-04T04:06:35.156Z,5.58
2022-10-04T04:09:03.274Z,5.63
2022-10-04T04:11:30.980Z,5.65
2022-10-04T04:14:04.605Z,5.64
2022-10-04T04:16:32.485Z,5.63
2022-10-04T04:19:02.357Z,5.65
2022-10-04T04:21:30.460Z,5.69
2022-10-04T04:24:00.706Z,5.60
2022-10-04T04:26:35.985Z,5.67
2022-10-04T04:29:08.264Z,5.70
2022-10-04T04:31:42.254Z,5.69
2022-10-04T04:34:18.113Z,5.69
2022-10-04T04:36:45.779Z,5.71
2022-10-04T04:39:37.281Z,5.72
2022-10-04T04:42:08.795Z,5.72
2022-10-04T04:44:38.818Z,5.72
2022-10-04T04:47:09.159Z,5.70
2022-10-04T04:49:39.707Z,5.67
2022-10-04T04:52:07.938Z,5.73
2022-10-04T04:54:35.607Z,5.78
2022-10-04T04:57:03.901Z,5.73
2022-10-04T04:59:31.645Z,5.66
2022-10-04T05:02:00.879Z,5.72
2022-10-04T05:04:28.819Z,5.77
2022-10-04T05:07:05.174Z,5.82
2022-10-04T05:09:34.055Z,5.87
2022-10-04T05:12:08.454Z,5.87
2022-10-04T05:14:39.347Z,5.80
2022-10-04T05:17:08.929Z,5.83
2022-10-04T05:19:38.096Z,5.86
2022-10-04T05:22:10.885Z,5.82
2022-10-04T05:24:41.248Z,5.82
2022-10-04T05:27:14.512Z,5.73
2022-10-04T05:29:50.752Z,5.75
2022-10-04T05:32:27.795Z,5.82
2022-10-04T05:34:55.838Z,5.64
2022-10-04T05:37:30.631Z,5.53
2022-10-04T05:40:06.041Z,5.63
2022-10-04T05:42:39.017Z,5.69
2022-10-04T05:45:16.234Z,5.74
2022-10-04T05:47:46.196Z,5.75
2022-10-04T05:50:17.745Z,5.81
2022-10-04T05:52:47.969Z,5.84
2022-10-04T05:55:23.549Z,5.81
2022-10-04T05:58:00.231Z,5.79
2022-10-04T06:00:36.504Z,5.82
2022-10-04T06:03:25.985Z,5.87
2022-10-04T06:05:56.088Z,5.93
2022-10-04T06:08:44.810Z,6.00
2022-10-04T06:11:22.949Z,6.08
2022-10-04T06:14:13.940Z,6.02
2022-10-04T06:16:54.901Z,6.03
2022-10-04T06:19:48.210Z,6.10
2022-10-04T06:22:17.609Z,6.21
2022-10-04T06:24:48.269Z,6.27
2022-10-04T06:27:19.583Z,6.33
2022-10-04T06:29:50.140Z,6.39
2022-10-04T06:32:37.081Z,6.46
2022-10-04T06:35:26.301Z,6.42
2022-10-04T06:38:26.994Z,6.32
2022-10-04T06:41:03.024Z,6.44
2022-10-04T06:43:41.325Z,6.60
2022-10-04T06:46:13.535Z,6.68
2022-10-04T06:48:44.914Z,6.83
2022-10-04T06:51:21.881Z,6.93
2022-10-04T06:53:57.391Z,6.96
2022-10-04T06:56:37.820Z,6.99
2022-10-04T06:59:18.586Z,6.94
2022-10-04T07:01:50.436Z,6.94
2022-10-04T07:05:03.082Z,7.03
2022-10-04T07:07:35.507Z,7.15
2022-10-04T07:10:14.217Z,7.21
2022-10-04T07:12:44.591Z,7.34
2022-10-04T07:15:19.020Z,7.47
2022-10-04T07:17:49.198Z,7.56
2022-10-04T07:20:22.682Z,7.64
2022-10-04T07:22:56.564Z,7.75
2022-10-04T07:25:27.404Z,7.85
2022-10-04T07:28:12.656Z,7.90
2022-10-04T07:30:43.590Z,7.78
2022-10-04T07:33:16.349Z,7.88
2022-10-04T07:35:46.684Z,7.98
2022-10-04T07:38:20.656Z,8.06
2022-10-04T07:41:03.483Z,8.10
2022-10-04T07:43:33.212Z,8.18
2022-10-04T07:46:06.305Z,8.25
2022-10-04T07:48:34.123Z,8.33
2022-10-04T07:51:09.470Z,8.38
2022-10-04T07:53:43.857Z,8.43
2022-10-04T07:56:14.939Z,8.57
2022-10-04T07:58:50.225Z,8.66
2022-10-04T08:01:26.738Z,8.75
2022-10-04T08:04:06.797Z,8.79
2022-10-04T08:06:37.554Z,8.87
2022-10-04T08:09:22.339Z,8.92
2022-10-04T08:11:55.517Z,9.04
2022-10-04T08:14:29.237Z,9.14
2022-10-04T08:17:11.840Z,9.24
2022-10-04T08:19:48.731Z,9.33
2022-10-04T08:22:24.109Z,9.40
2022-10-04T08:25:02.308Z,9.46
2022-10-04T08:27:40.862Z,9.44
2022-10-04T08:30:12.648Z,9.55
2022-10-04T08:32:55.755Z,9.60
2022-10-04T08:35:36.087Z,9.65
2022-10-04T08:38:29.261Z,9.71
2022-10-04T08:41:43.949Z,9.87
2022-10-04T08:44:43.012Z,9.91
2022-10-04T08:47:40.966Z,10.04
2022-10-04T08:50:28.887Z,10.02
2022-10-04T08:53:33.087Z,10.08
2022-10-04T08:56:08.513Z,10.30
2022-10-04T08:58:51.785Z,10.35
2022-10-04T09:01:33.700Z,10.50
2022-10-04T09:04:36.838Z,10.66
2022-10-04T09:07:19.002Z,10.85
2022-10-04T09:10:25.150Z,10.80
2022-10-04T09:13:01.265Z,10.88
2022-10-04T09:15:54.244Z,11.05
2022-10-04T09:18:50.585Z,11.16
2022-10-04T09:21:28.073Z,11.27
2022-10-04T09:24:43.705Z,11.25
2022-10-04T09:27:53.738Z,11.28
2022-10-04T09:30:19.750Z,11.10
2022-10-04T09:33:16.774Z,11.25
2022-10-04T09:36:21.124Z,11.40
2022-10-04T09:39:29.360Z,11.57
2022-10-04T09:42:31.649Z,11.68
2022-10-04T09:45:21.687Z,11.70
2022-10-04T09:48:01.784Z,11.51
2022-10-04T09:51:07.983Z,11.54
2022-10-04T09:53:45.128Z,11.69
2022-10-04T09:56:49.300Z,11.67
2022-10-04T09:59:29.206Z,11.75
2022-10-04T10:02:29.155Z,11.93
2022-10-04T10:05:14.337Z,11.98
2022-10-04T10:07:47.415Z,12.02
2022-10-04T10:10:40.329Z,12.10
2022-10-04T10:13:38.762Z,12.31
2022-10-04T10:16:20.084Z,12.41
2022-10-04T10:18:56.075Z,12.46
2022-10-04T10:21:45.772Z,12.35
2022-10-04T10:24:57.463Z,12.48
2022-10-04T10:27:52.406Z,12.34
2022-10-04T10:30:25.960Z,12.44
2022-10-04T10:33:20.367Z,12.44
2022-10-04T10:36:08.270Z,12.59
2022-10-04T10:38:49.259Z,12.72
2022-10-04T10:41:35.842Z,12.75
2022-10-04T10:44:33.311Z,12.86
2022-10-04T10:47:08.568Z,12.95
2022-10-04T10:49:56.380Z,13.00
2022-10-04T10:52:55.577Z,13.12
2022-10-04T10:55:30.979Z,13.30
2022-10-04T10:58:26.395Z,13.29
2022-10-04T11:01:03.434Z,13.40
2022-10-04T11:04:02.159Z,13.53
2022-10-04T11:06:47.556Z,13.60
2022-10-04T11:09:38.093Z,13.71
2022-10-04T11:12:35.568Z,13.98
2022-10-04T11:15:36.258Z,14.32
2022-10-04T11:18:41.385Z,14.52
2022-10-04T11:21:42.967Z,14.68
2022-10-04T11:24:29.160Z,14.92
2022-10-04T11:27:19.308Z,15.10
2022-10-04T11:30:08.771Z,15.27
2022-10-04T11:33:18.888Z,15.54
2022-10-04T11:35:54.692Z,15.83
2022-10-04T11:38:48.615Z,16.11
2022-10-04T11:41:19.616Z,16.27
2022-10-04T11:44:21.568Z,16.12
2022-10-04T11:46:54.874Z,16.25
2022-10-04T11:49:35.616Z,16.13
2022-10-04T11:52:31.056Z,16.41
2022-10-04T11:55:23.506Z,16.49
2022-10-04T11:57:53.880Z,15.76
2022-10-04T12:00:22.935Z,16.19
2022-10-04T12:03:00.236Z,16.64
2022-10-04T12:05:49.768Z,16.74
2022-10-04T12:08:23.777Z,16.48
2022-10-04T12:11:12.264Z,16.52
2022-10-04T12:13:50.578Z,16.69
2022-10-04T12:16:37.443Z,17.00
2022-10-04T12:19:32.494Z,17.12
2022-10-04T12:22:10.643Z,17.18
2022-10-04T12:24:59.510Z,17.32
2022-10-04T12:27:48.289Z,17.37
2022-10-04T12:30:24.082Z,17.40
2022-10-04T12:32:58.363Z,17.41
2022-10-04T12:35:34.982Z,17.48
2022-10-04T12:38:18.284Z,17.40
2022-10-04T12:40:51.793Z,17.52
2022-10-04T12:43:23.964Z,17.52
2022-10-04T12:45:56.434Z,17.58
2022-10-04T12:48:28.958Z,17.73
2022-10-04T12:51:11.239Z,17.83
2022-10-04T12:53:43.665Z,17.73
2022-10-04T12:56:22.152Z,17.75
2022-10-04T12:59:08.671Z,17.76
2022-10-04T13:01:43.128Z,17.50
2022-10-04T13:04:22.240Z,17.70
2022-10-04T13:07:01.229Z,17.75
2022-10-04T13:09:38.440Z,17.65
2022-10-04T13:12:20.576Z,17.58
2022-10-04T13:14:58.331Z,17.34
2022-10-04T13:17:36.237Z,17.25
2022-10-04T13:20:26.001Z,17.33
2022-10-04T13:22:58.182Z,17.40
2022-10-04T13:25:53.422Z,17.51
2022-10-04T13:28:25.645Z,17.39
2022-10-04T13:31:01.550Z,17.51
2022-10-04T13:33:35.584Z,17.64
2022-10-04T13:36:08.410Z,17.59
2022-10-04T13:39:03.287Z,17.64
2022-10-04T13:41:39.797Z,17.67
2022-10-04T13:44:31.413Z,17.74
2022-10-04T13:47:12.192Z,17.62
2022-10-04T13:49:52.783Z,17.67
2022-10-04T13:52:48.163Z,17.77
2022-10-04T13:55:42.703Z,17.96
2022-10-04T13:58:22.504Z,17.89
2022-10-04T14:01:02.785Z,17.58
2022-10-04T14:03:47.050Z,17.50
2022-10-04T14:06:52.911Z,17.18
2022-10-04T14:09:42.587Z,17.21
2022-10-04T14:12:38.592Z,17.44
2022-10-04T14:15:33.996Z,17.40
2022-10-04T14:18:50.232Z,17.41
2022-10-04T14:21:43.767Z,17.44
2022-10-04T14:24:26.364Z,17.32
2022-10-04T14:26:59.852Z,17.40
2022-10-04T14:29:51.148Z,17.50
2022-10-04T14:32:51.986Z,17.51
2022-10-04T14:35:23.441Z,17.50
2022-10-04T14:38:29.186Z,17.44
2022-10-04T14:41:14.182Z,17.47
2022-10-04T14:44:11.379Z,17.43
2022-10-04T14:46:47.141Z,17.47
2022-10-04T14:49:20.563Z,17.35
2022-10-04T14:52:08.321Z,17.35
2022-10-04T14:54:48.229Z,17.27
2022-10-04T14:57:21.100Z,17.29
2022-10-04T15:00:16.371Z,17.25
2022-10-04T15:03:19.161Z,17.27
2022-10-04T15:06:26.305Z,17.23
2022-10-04T15:09:19.082Z,17.26
2022-10-04T15:12:25.589Z,17.20
2022-10-04T15:14:45.188Z,17.22
2022-10-04T15:17:26.928Z,17.14
2022-10-04T15:20:03.154Z,17.13
2022-10-04T15:22:38.343Z,17.03
2022-10-04T15:25:37.579Z,16.98
2022-10-04T15:28:11.371Z,16.99
2022-10-04T15:30:50.780Z,16.98
2022-10-04T15:33:27.323Z,16.96
2022-10-04T15:36:27.849Z,16.92
2022-10-04T15:39:02.802Z,16.86
2022-10-04T15:41:38.344Z,16.85
2022-10-04T15:44:27.870Z,16.72
2022-10-04T15:47:07.291Z,16.60
2022-10-04T15:49:52.590Z,16.56
2022-10-04T15:52:49.902Z,16.55
2022-10-04T15:55:34.058Z,16.50
2022-10-04T15:58:18.194Z,16.42
2022-10-04T16:00:55.354Z,16.30
2022-10-04T16:03:30.740Z,16.28
2022-10-04T16:06:00.941Z,16.11
2022-10-04T16:08:38.432Z,16.12
2022-10-04T16:11:38.158Z,16.05
2022-10-04T16:14:42.369Z,16.07
2022-10-04T16:17:25.090Z,15.99
2022-10-04T16:20:02.141Z,15.79
2022-10-04T16:22:31.113Z,15.65
2022-10-04T16:25:00.352Z,15.66
2022-10-04T16:27:51.291Z,15.57
2022-10-04T16:30:29.170Z,15.49
2022-10-04T16:33:25.897Z,15.24
2022-10-04T16:36:05.976Z,15.04
2022-10-04T16:38:36.541Z,14.92
2022-10-04T16:41:11.371Z,14.87
2022-10-04T16:43:41.107Z,14.86
2022-10-04T16:46:18.380Z,14.70
2022-10-04T16:48:56.051Z,14.66
2022-10-04T16:52:05.133Z,14.58
2022-10-04T16:54:58.681Z,14.23
2022-10-04T16:57:27.879Z,14.08
2022-10-04T16:59:56.946Z,13.87
2022-10-04T17:02:43.425Z,13.84
2022-10-04T17:05:32.758Z,13.68
2022-10-04T17:08:16.795Z,13.68
2022-10-04T17:11:02.951Z,13.51
2022-10-04T17:13:35.775Z,13.49
2022-10-04T17:16:06.619Z,13.56
2022-10-04T17:18:44.772Z,13.55
2022-10-04T17:21:24.746Z,13.53
2022-10-04T17:24:09.652Z,13.32
2022-10-04T17:26:47.162Z,13.24
2022-10-04T17:29:29.948Z,13.08
2022-10-04T17:31:59.865Z,13.04
2022-10-04T17:34:37.145Z,12.97
2022-10-04T17:37:16.442Z,12.83
2022-10-04T17:39:47.479Z,12.66
2022-10-04T17:42:27.942Z,12.66
2022-10-04T17:45:32.890Z,12.61
2022-10-04T17:48:21.153Z,12.57
2022-10-04T17:51:13.526Z,12.58
2022-10-04T17:54:03.614Z,12.60
2022-10-04T17:56:36.343Z,12.49
2022-10-04T17:59:08.679Z,12.34
2022-10-04T18:01:39.116Z,12.13
2022-10-04T18:04:17.068Z,11.83
2022-10-04T18:06:51.181Z,11.67
2022-10-04T18:09:24.113Z,11.59
2022-10-04T18:11:53.675Z,11.50
2022-10-04T18:14:43.033Z,11.42
2022-10-04T18:17:14.845Z,11.41
2022-10-04T18:19:45.317Z,11.49
2022-10-04T18:22:15.519Z,11.55
2022-10-04T18:24:45.367Z,11.48
2022-10-04T18:27:19.610Z,11.28
2022-10-04T18:30:00.543Z,11.25
2022-10-04T18:32:35.610Z,11.27
2022-10-04T18:35:22.078Z,11.23
2022-10-04T18:37:50.436Z,11.19
2022-10-04T18:40:21.587Z,11.18
2022-10-04T18:42:53.193Z,11.04
2022-10-04T18:45:28.721Z,10.97
2022-10-04T18:47:57.441Z,10.98
2022-10-04T18:50:33.096Z,11.03
2022-10-04T18:53:19.720Z,11.05
2022-10-04T18:55:58.586Z,11.04
2022-10-04T18:58:55.017Z,11.07
2022-10-04T19:01:55.520Z,10.92
2022-10-04T19:04:29.728Z,10.82
2022-10-04T19:07:04.540Z,10.80
2022-10-04T19:09:39.640Z,10.67
2022-10-04T19:12:12.172Z,10.57
2022-10-04T19:14:47.614Z,10.39
2022-10-04T19:17:23.079Z,10.32
2022-10-04T19:19:55.452Z,10.33
2022-10-04T19:22:33.851Z,10.45
2022-10-04T19:25:11.928Z,10.54
2022-10-04T19:27:45.285Z,10.53
2022-10-04T19:30:19.015Z,10.47
2022-10-04T19:32:59.058Z,10.45
2022-10-04T19:35:36.413Z,10.45
2022-10-04T19:38:09.445Z,10.36
2022-10-04T19:40:44.296Z,10.28
2022-10-04T19:43:15.657Z,10.29
2022-10-04T19:45:48.376Z,10.30
2022-10-04T19:48:24.169Z,10.20
2022-10-04T19:50:55.478Z,10.06
2022-10-04T19:53:26.806Z,10.04
2022-10-04T19:55:56.640Z,10.09
2022-10-04T19:58:37.726Z,10.16
2022-10-04T20:01:11.471Z,10.15
2022-10-04T20:03:39.534Z,10.16
2022-10-04T20:06:07.924Z,10.08
2022-10-04T20:09:01.491Z,10.02
2022-10-04T20:11:48.450Z,9.94
2022-10-04T20:14:48.202Z,9.89
2022-10-04T20:17:31.573Z,9.80
2022-10-04T20:19:59.818Z,9.80
2022-10-04T20:22:29.590Z,9.80
2022-10-04T20:24:57.899Z,9.76
2022-10-04T20:28:03.584Z,9.67
2022-10-04T20:30:52.345Z,9.64
2022-10-04T20:33:51.167Z,9.61
2022-10-04T20:36:50.933Z,9.53
2022-10-04T20:40:01.478Z,9.54
2022-10-04T20:42:37.000Z,9.52
2022-10-04T20:45:22.127Z,9.49
2022-10-04T20:47:52.333Z,9.45
2022-10-04T20:50:32.009Z,9.42
2022-10-04T20:53:02.005Z,9.41
2022-10-04T20:55:31.171Z,9.43
2022-10-04T20:58:03.237Z,9.42
2022-10-04T21:00:34.697Z,9.41
2022-10-04T21:03:17.637Z,9.40
2022-10-04T21:05:49.937Z,9.39
2022-10-04T21:08:25.122Z,9.37
2022-10-04T21:11:06.769Z,9.33
2022-10-04T21:13:54.489Z,9.36
2022-10-04T21:16:39.916Z,9.39
2022-10-04T21:19:31.117Z,9.38
2022-10-04T21:21:59.501Z,9.39
2022-10-04T21:24:36.113Z,9.39
2022-10-04T21:27:04.203Z,9.38
2022-10-04T21:29:31.966Z,9.37
2022-10-04T21:32:00.173Z,9.36
2022-10-04T21:34:51.932Z,9.34
2022-10-04T21:37:17.672Z,9.31
2022-10-04T21:39:45.705Z,9.31
2022-10-04T21:42:13.372Z,9.30
2022-10-04T21:44:40.992Z,9.26
2022-10-04T21:47:08.656Z,9.27
2022-10-04T21:49:36.359Z,9.28
2022-10-04T21:52:04.349Z,9.26
2022-10-04T21:54:33.402Z,9.17
2022-10-04T21:57:01.041Z,9.15
2022-10-04T21:59:28.779Z,9.11
2022-10-04T22:01:56.409Z,9.11
2022-10-04T22:04:24.040Z,9.08
2022-10-04T22:06:51.692Z,9.05
2022-10-04T22:09:19.332Z,9.02
2022-10-04T22:11:48.289Z,8.99
2022-10-04T22:14:15.947Z,8.97
2022-10-04T22:16:44.179Z,8.93
2022-10-04T22:19:12.037Z,8.91
2022-10-04T22:21:39.630Z,8.89
2022-10-04T22:24:20.568Z,8.86
2022-10-04T22:26:50.016Z,8.86
2022-10-04T22:29:19.052Z,8.85
2022-10-04T22:31:49.371Z,8.82
2022-10-04T22:34:19.282Z,8.77
2022-10-04T22:36:47.705Z,8.75
2022-10-04T22:39:17.251Z,8.68
2022-10-04T22:41:46.391Z,8.62
2022-10-04T22:44:16.734Z,8.55
2022-10-04T22:46:46.566Z,8.49
2022-10-04T22:49:16.414Z,8.48
2022-10-04T22:51:45.421Z,8.48
2022-10-04T22:54:14.241Z,8.46
2022-10-04T22:56:42.241Z,8.43
2022-10-04T22:59:10.856Z,8.40
2022-10-04T23:01:40.253Z,8.37
2022-10-04T23:04:14.199Z,8.35
2022-10-04T23:06:41.803Z,8.31
2022-10-04T23:09:09.381Z,8.26
2022-10-04T23:11:36.980Z,8.21
2022-10-04T23:14:04.724Z,8.14
2022-10-04T23:16:32.717Z,8.12
2022-10-04T23:19:03.287Z,8.12
2022-10-04T23:21:33.138Z,8.12
2022-10-04T23:24:06.411Z,8.16
2022-10-04T23:26:38.352Z,8.18
2022-10-04T23:29:07.952Z,8.16
2022-10-04T23:31:37.787Z,8.18
2022-10-04T23:34:15.225Z,8.16
2022-10-04T23:36:43.009Z,8.14
2022-10-04T23:39:14.121Z,8.12
2022-10-04T23:41:42.550Z,8.11
2022-10-04T23:44:12.363Z,8.15
2022-10-04T23:46:40.057Z,8.13
2022-10-04T23:49:13.353Z,8.14
2022-10-04T23:51:41.014Z,8.17
2022-10-04T23:54:13.984Z,8.17
2022-10-04T23:56:42.374Z,8.19
2022-10-04T23:59:15.087Z,8.18
